»·PEaware :: N210AR KSNA-KSNA

N210AR :: KSNA-KSNA

FLIGHT INFORMATION

Flight Status: Arrived
Operator: Privately registered:
United States
More flights under this callsign
Pilot: Max S. (16657)
Aircraft: CESSNA 172 SKYHAWK
(C172)
More flights by this aircraft type
Origin: KSNA John Wayne-Orange Co
United States
Destination: KSNA John Wayne-Orange Co
United States
More flights between these airports :: More routes between these airports
Route: +SLI
File this flight plan on PilotEdge
Remarks:
Altitude:
(Current/Filed)
4,000ft
Speed:
(Current/Filed)
100kts
Departed: 17-Oct-20 09:05 AM
Arrived: 17-Oct-20 09:27 AM
Distance/Time
Traveled:
2nm/0:22
Distance/Time
To Go:
Arrived

Flight Plot

Page will automatically refresh every two minutes.


Map Options




Map Legend


Flown Route
Filed Route
Departure Airport
Arrival Airport
Navaid (VOR, NDB)
Fix

Horizontal Profiles

Position Reports

Time Latitude Longitude Heading Altitude Ground
Speed
17-Oct-20 08:49 33.671261 -117.867615 77 60ft 0kts
17-Oct-20 08:50 33.671261 -117.867615 77 60ft 0kts
17-Oct-20 08:51 33.671261 -117.867615 77 60ft 0kts
17-Oct-20 08:52 33.671261 -117.867615 77 60ft 0kts
17-Oct-20 08:53 33.671261 -117.867615 77 60ft 0kts
17-Oct-20 08:54 33.671261 -117.867615 77 60ft 0kts
17-Oct-20 08:55 33.671261 -117.867615 77 60ft 0kts
17-Oct-20 08:56 33.672151 -117.868011 352 60ft 9kts
17-Oct-20 08:57 33.674612 -117.866771 28 60ft 16kts
17-Oct-20 08:58 33.679574 -117.863600 26 60ft 12kts
17-Oct-20 08:59 33.679925 -117.863586 311 60ft 0kts
17-Oct-20 09:00 33.679925 -117.863586 311 60ft 0kts
17-Oct-20 09:01 33.679925 -117.863586 311 60ft 0kts
17-Oct-20 09:02 33.679925 -117.863586 311 60ft 0kts
17-Oct-20 09:03 33.680052 -117.863796 294 60ft 7kts
17-Oct-20 09:04 33.668618 -117.873557 229 612ft 66kts
17-Oct-20 09:05 33.653816 -117.895093 230 1257ft 98kts
17-Oct-20 09:06 33.653044 -117.922702 346 1853ft 108kts
17-Oct-20 09:07 33.681892 -117.912034 20 2456ft 109kts
17-Oct-20 09:08 33.710309 -117.898874 20 2988ft 114kts
17-Oct-20 09:09 33.741340 -117.884425 21 2971ft 116kts
17-Oct-20 09:10 33.771252 -117.870088 21 2973ft 118kts
17-Oct-20 09:11 33.803018 -117.854837 21 2972ft 124kts
17-Oct-20 09:12 33.835272 -117.839334 21 2971ft 124kts
17-Oct-20 09:13 33.867447 -117.823852 21 2971ft 124kts
17-Oct-20 09:14 33.890659 -117.798513 89 2972ft 124kts
17-Oct-20 09:15 33.889843 -117.756699 91 2971ft 124kts
17-Oct-20 09:16 33.889249 -117.724418 91 2962ft 72kts
17-Oct-20 09:17 33.871862 -117.715852 181 2981ft 110kts
17-Oct-20 09:18 33.846361 -117.739405 241 2970ft 128kts
17-Oct-20 09:19 33.828015 -117.775983 214 2972ft 129kts
17-Oct-20 09:20 33.794153 -117.793037 207 2750ft 137kts
17-Oct-20 09:21 33.766712 -117.810886 208 2012ft 98kts
17-Oct-20 09:22 33.741703 -117.827251 208 1472ft 103kts
17-Oct-20 09:23 33.717590 -117.842998 208 862ft 94kts
17-Oct-20 09:24 33.698668 -117.854173 208 474ft 61kts
17-Oct-20 09:25 33.683023 -117.863873 206 173ft 69kts
17-Oct-20 09:26 33.674659 -117.868580 162 60ft 14kts
17-Oct-20 09:27 33.673992 -117.867752 120 60ft 16kts
17-Oct-20 09:28 33.671251 -117.867799 210 60ft 0kts
17-Oct-20 09:29 33.671251 -117.867799 210 60ft 0kts
17-Oct-20 09:30 33.671251 -117.867799 210 60ft 0kts
17-Oct-20 09:31 33.671251 -117.867799 210 60ft 0kts
17-Oct-20 09:32 33.671251 -117.867799 210 60ft 0kts
17-Oct-20 09:33 33.671251 -117.867799 210 60ft 0kts
17-Oct-20 09:34 33.671251 -117.867799 210 60ft 0kts
17-Oct-20 09:35 33.671251 -117.867799 210 60ft 0kts
17-Oct-20 09:36 33.671211 -117.868054 305 60ft 5kts
17-Oct-20 09:37 33.674136 -117.867068 28 60ft 16kts
17-Oct-20 09:38 33.678990 -117.863985 28 60ft 21kts
17-Oct-20 09:39 33.679942 -117.863601 311 60ft 0kts
17-Oct-20 09:40 33.673065 -117.868614 206 295ft 69kts
17-Oct-20 09:41 33.656523 -117.888757 229 908ft 105kts

Navigation Log

Ident Type
Flight plan parsing failed, navigation log unavailable